createdAt,value
2019-05-18T00:00:08.594Z,64.80
2019-05-18T00:02:37.459Z,66.60
2019-05-18T00:05:07.170Z,65.27
2019-05-18T00:07:35.729Z,66.83
2019-05-18T00:10:06.040Z,66.00
2019-05-18T00:12:34.795Z,66.97
2019-05-18T00:15:04.409Z,63.70
2019-05-18T00:17:33.383Z,68.50
2019-05-18T00:20:02.222Z,62.00
2019-05-18T00:22:30.796Z,67.43
2019-05-18T00:24:59.500Z,71.67
2019-05-18T00:27:28.064Z,65.70
2019-05-18T00:29:57.020Z,66.07
2019-05-18T00:32:25.696Z,69.00
2019-05-18T00:34:54.258Z,68.87
2019-05-18T00:37:22.851Z,74.03
2019-05-18T00:39:51.428Z,75.57
2019-05-18T00:42:20.080Z,71.20
2019-05-18T00:44:48.729Z,74.27
2019-05-18T00:47:17.390Z,65.43
2019-05-18T00:49:46.035Z,73.33
2019-05-18T00:52:14.633Z,71.50
2019-05-18T00:54:43.730Z,78.40
2019-05-18T00:57:12.473Z,76.57
2019-05-18T00:59:41.043Z,78.43
2019-05-18T01:02:09.665Z,84.47
2019-05-18T01:04:38.597Z,85.93
2019-05-18T01:07:07.155Z,89.50
2019-05-18T01:09:35.745Z,84.80
2019-05-18T01:12:04.310Z,82.37
2019-05-18T01:14:32.955Z,94.17
2019-05-18T01:17:01.516Z,95.23
2019-05-18T01:19:30.144Z,98.47
2019-05-18T01:21:58.686Z,89.93
2019-05-18T01:24:27.330Z,90.33
2019-05-18T01:26:56.073Z,89.13
2019-05-18T01:29:24.661Z,97.63
2019-05-18T01:31:53.292Z,86.77
2019-05-18T01:34:21.879Z,97.87
2019-05-18T01:36:50.536Z,93.60
2019-05-18T01:39:19.123Z,92.50
2019-05-18T01:41:47.696Z,106.47
2019-05-18T01:44:16.368Z,106.23
2019-05-18T01:46:44.960Z,101.63
2019-05-18T01:49:13.686Z,99.03
2019-05-18T01:51:42.304Z,101.90
2019-05-18T01:54:10.874Z,99.47
2019-05-18T01:56:39.423Z,96.53
2019-05-18T01:59:08.221Z,90.37
2019-05-18T02:01:37.238Z,87.80
2019-05-18T02:04:05.879Z,94.83
2019-05-18T02:06:34.524Z,93.50
2019-05-18T02:09:04.622Z,80.80
2019-05-18T02:11:33.228Z,84.70
2019-05-18T02:14:01.789Z,88.43
2019-05-18T02:16:30.384Z,86.77
2019-05-18T02:18:58.949Z,82.63
2019-05-18T02:21:27.875Z,86.83
2019-05-18T02:23:56.429Z,87.33
2019-05-18T02:26:25.022Z,90.53
2019-05-18T02:28:53.605Z,91.67
2019-05-18T02:31:22.208Z,84.67
2019-05-18T02:33:50.765Z,92.23
2019-05-18T02:36:19.416Z,90.67
2019-05-18T02:38:47.985Z,88.70
2019-05-18T02:41:16.564Z,88.83
2019-05-18T02:43:45.811Z,82.17
2019-05-18T02:46:14.769Z,90.07
2019-05-18T02:48:49.689Z,84.50
2019-05-18T02:51:13.760Z,88.23
2019-05-18T02:53:42.340Z,90.10
2019-05-18T02:56:11.012Z,94.00
2019-05-18T02:58:39.580Z,85.60
2019-05-18T03:01:08.546Z,91.77
2019-05-18T03:03:37.131Z,92.90
2019-05-18T03:06:05.863Z,96.83
2019-05-18T03:08:34.562Z,100.17
2019-05-18T03:11:03.252Z,106.97
2019-05-18T03:13:31.806Z,104.47
2019-05-18T03:16:00.825Z,100.30
2019-05-18T03:18:29.469Z,101.53
2019-05-18T03:20:58.042Z,97.07
2019-05-18T03:23:26.621Z,98.90
2019-05-18T03:25:55.277Z,93.50
2019-05-18T03:28:23.837Z,94.10
2019-05-18T03:30:52.729Z,92.63
2019-05-18T03:33:28.068Z,91.57
2019-05-18T03:35:51.554Z,95.67
2019-05-18T03:38:20.172Z,88.83
2019-05-18T03:40:48.833Z,90.17
2019-05-18T03:43:17.413Z,97.03
2019-05-18T03:45:45.966Z,82.47
2019-05-18T03:48:14.551Z,87.87
2019-05-18T03:50:43.702Z,86.80
2019-05-18T03:53:12.371Z,90.63
2019-05-18T03:55:40.982Z,98.40
2019-05-18T03:58:09.663Z,92.33
2019-05-18T04:00:38.225Z,98.73
2019-05-18T04:03:06.952Z,93.23
2019-05-18T04:05:35.563Z,82.77
2019-05-18T04:08:04.147Z,87.17
2019-05-18T04:10:32.813Z,93.37
2019-05-18T04:13:01.692Z,85.63
2019-05-18T04:15:30.269Z,95.77
2019-05-18T04:17:59.271Z,93.80
2019-05-18T04:20:28.268Z,91.13
2019-05-18T04:22:56.860Z,93.60
2019-05-18T04:25:25.427Z,90.03
2019-05-18T04:27:54.049Z,87.50
2019-05-18T04:30:22.765Z,87.97
2019-05-18T04:32:51.354Z,96.53
2019-05-18T04:35:19.952Z,98.07
2019-05-18T04:37:48.538Z,94.00
2019-05-18T04:40:17.251Z,97.23
2019-05-18T04:42:45.866Z,96.50
2019-05-18T04:45:14.716Z,90.07
2019-05-18T04:47:43.296Z,93.83
2019-05-18T04:50:12.130Z,91.60
2019-05-18T04:52:41.058Z,98.37
2019-05-18T04:55:09.804Z,88.87
2019-05-18T04:57:38.390Z,89.43
2019-05-18T05:00:10.267Z,87.93
2019-05-18T05:02:38.875Z,89.00
2019-05-18T05:05:07.897Z,88.37
2019-05-18T05:07:36.560Z,93.33
2019-05-18T05:10:07.959Z,91.07
2019-05-18T05:12:36.571Z,93.77
2019-05-18T05:15:05.969Z,88.10
2019-05-18T05:17:34.574Z,86.80
2019-05-18T05:20:18.313Z,89.03
2019-05-18T05:22:34.702Z,87.30
2019-05-18T05:25:03.449Z,87.90
2019-05-18T05:27:32.017Z,84.80
2019-05-18T05:30:00.596Z,86.97
2019-05-18T05:32:29.171Z,87.27
2019-05-18T05:34:57.852Z,83.93
2019-05-18T05:37:26.798Z,85.87
2019-05-18T05:39:55.393Z,84.67
2019-05-18T05:42:24.371Z,78.80
2019-05-18T05:44:54.247Z,81.30
2019-05-18T05:47:22.913Z,80.90
2019-05-18T05:49:51.506Z,75.73
2019-05-18T05:52:24.080Z,80.63
2019-05-18T05:54:52.594Z,79.93
2019-05-18T05:57:21.523Z,75.47
2019-05-18T05:59:50.093Z,72.20
2019-05-18T06:02:19.172Z,74.97
2019-05-18T06:04:47.742Z,75.77
2019-05-18T06:07:16.431Z,75.20
2019-05-18T06:09:45.005Z,74.37
2019-05-18T06:12:13.620Z,71.87
2019-05-18T06:14:42.286Z,77.00
2019-05-18T06:17:10.922Z,71.77
2019-05-18T06:19:39.513Z,72.47
2019-05-18T06:22:08.249Z,71.93
2019-05-18T06:24:36.896Z,72.40
2019-05-18T06:27:05.621Z,77.77
2019-05-18T06:29:34.391Z,73.90
2019-05-18T06:32:03.361Z,76.10
2019-05-18T06:34:32.396Z,72.60
2019-05-18T06:37:00.989Z,74.30
2019-05-18T06:39:29.630Z,75.43
2019-05-18T06:41:58.163Z,76.83
2019-05-18T06:44:26.765Z,76.30
2019-05-18T06:46:55.322Z,76.73
2019-05-18T06:49:23.928Z,77.93
2019-05-18T06:51:52.757Z,74.80
2019-05-18T06:54:21.360Z,75.60
2019-05-18T06:56:51.185Z,73.27
2019-05-18T06:59:20.201Z,76.97
2019-05-18T07:01:48.801Z,74.90
2019-05-18T07:04:17.389Z,72.87
2019-05-18T07:06:45.979Z,75.17
2019-05-18T07:09:14.643Z,73.43
2019-05-18T07:11:43.227Z,78.70
2019-05-18T07:14:24.862Z,78.97
2019-05-18T07:16:42.139Z,73.43
2019-05-18T07:19:10.797Z,80.17
2019-05-18T07:21:39.458Z,81.40
2019-05-18T07:24:08.188Z,76.73
2019-05-18T07:26:36.880Z,76.37
2019-05-18T07:29:05.889Z,75.40
2019-05-18T07:31:34.573Z,77.17
2019-05-18T07:34:03.297Z,76.90
2019-05-18T07:36:31.889Z,82.07
2019-05-18T07:39:00.463Z,82.80
2019-05-18T07:41:29.061Z,80.10
2019-05-18T07:43:57.610Z,82.53
2019-05-18T07:46:26.198Z,83.83
2019-05-18T07:48:54.792Z,82.67
2019-05-18T07:51:36.322Z,81.00
2019-05-18T07:53:53.666Z,80.47
2019-05-18T07:56:22.254Z,80.83
2019-05-18T07:58:50.887Z,84.27
2019-05-18T08:01:19.849Z,81.60
2019-05-18T08:03:48.452Z,83.97
2019-05-18T08:06:17.192Z,87.20
2019-05-18T08:08:45.870Z,82.70
2019-05-18T08:11:14.501Z,81.60
2019-05-18T08:13:43.241Z,83.73
2019-05-18T08:16:11.800Z,81.33
2019-05-18T08:18:40.858Z,81.43
2019-05-18T08:21:09.496Z,82.97
2019-05-18T08:23:38.106Z,81.63
2019-05-18T08:26:06.761Z,90.70
2019-05-18T08:28:35.381Z,84.10
2019-05-18T08:31:04.419Z,82.03
2019-05-18T08:33:32.983Z,74.83
2019-05-18T08:36:01.716Z,81.47
2019-05-18T08:38:30.363Z,76.20
2019-05-18T08:40:58.968Z,77.57
2019-05-18T08:43:27.573Z,74.70
2019-05-18T08:45:56.177Z,72.13
2019-05-18T08:48:24.804Z,75.70
2019-05-18T08:50:53.860Z,76.20
2019-05-18T08:53:22.724Z,72.23
2019-05-18T08:55:51.532Z,67.27
2019-05-18T08:58:20.161Z,70.67
2019-05-18T09:00:48.837Z,72.33
2019-05-18T09:03:17.434Z,67.83
2019-05-18T09:05:46.013Z,75.43
2019-05-18T09:08:14.608Z,68.53
2019-05-18T09:10:43.246Z,73.97
2019-05-18T09:13:11.838Z,74.47
2019-05-18T09:15:40.402Z,66.83
2019-05-18T09:18:08.983Z,66.50
2019-05-18T09:20:37.667Z,72.10
2019-05-18T09:23:06.642Z,70.63
2019-05-18T09:25:35.285Z,68.13
2019-05-18T09:28:03.985Z,69.20
2019-05-18T09:30:32.613Z,63.13
2019-05-18T09:33:01.150Z,70.67
2019-05-18T09:35:29.756Z,76.47
2019-05-18T09:37:58.393Z,71.93
2019-05-18T09:40:29.637Z,71.00
2019-05-18T09:42:58.358Z,72.37
2019-05-18T09:45:27.108Z,72.97
2019-05-18T09:47:55.808Z,69.27
2019-05-18T09:50:24.709Z,71.17
2019-05-18T09:52:53.303Z,69.07
2019-05-18T09:55:22.013Z,72.47
2019-05-18T09:57:51.137Z,68.43
2019-05-18T10:00:21.316Z,65.50
2019-05-18T10:02:50.047Z,69.30
2019-05-18T10:05:18.851Z,66.63
2019-05-18T10:07:47.609Z,68.63
2019-05-18T10:10:16.281Z,68.53
2019-05-18T10:12:45.684Z,63.33
2019-05-18T10:15:14.719Z,66.63
2019-05-18T10:17:43.716Z,70.30
2019-05-18T10:20:13.130Z,62.93
2019-05-18T10:22:55.061Z,68.33
2019-05-18T10:25:12.977Z,61.10
2019-05-18T10:27:41.578Z,59.80
2019-05-18T10:30:11.519Z,62.47
2019-05-18T10:32:40.213Z,58.80
2019-05-18T10:35:09.166Z,58.53
2019-05-18T10:37:38.353Z,64.17
2019-05-18T10:40:08.696Z,57.93
2019-05-18T10:42:37.695Z,57.73
2019-05-18T10:45:07.481Z,58.00
2019-05-18T10:47:36.086Z,60.33
2019-05-18T10:50:06.844Z,57.63
2019-05-18T10:52:35.417Z,61.50
2019-05-18T10:55:05.871Z,59.33
2019-05-18T10:57:39.259Z,62.27
2019-05-18T11:00:10.100Z,58.60
2019-05-18T11:02:39.244Z,56.57
2019-05-18T11:05:11.700Z,59.10
2019-05-18T11:07:40.394Z,60.97
2019-05-18T11:10:10.879Z,58.60
2019-05-18T11:12:40.102Z,57.73
2019-05-18T11:15:09.954Z,63.83
2019-05-18T11:17:38.716Z,55.03
2019-05-18T11:20:11.395Z,57.97
2019-05-18T11:22:40.167Z,59.93
2019-05-18T11:25:09.304Z,59.23
2019-05-18T11:27:38.009Z,63.67
2019-05-18T11:30:07.706Z,60.00
2019-05-18T11:32:36.792Z,62.03
2019-05-18T11:35:09.135Z,60.70
2019-05-18T11:37:37.827Z,60.67
2019-05-18T11:40:08.504Z,60.67
2019-05-18T11:42:37.782Z,63.23
2019-05-18T11:45:08.835Z,56.43
2019-05-18T11:47:37.505Z,60.87
2019-05-18T11:50:08.746Z,57.03
2019-05-18T11:52:37.532Z,56.60
2019-05-18T11:55:06.837Z,57.77
2019-05-18T11:57:35.590Z,58.27
2019-05-18T12:00:10.744Z,57.27
2019-05-18T12:02:39.413Z,59.67
2019-05-18T12:05:08.550Z,61.43
2019-05-18T12:07:37.300Z,63.07
2019-05-18T12:10:10.958Z,62.00
2019-05-18T12:12:39.801Z,58.63
2019-05-18T12:15:10.392Z,60.30
2019-05-18T12:17:39.023Z,54.33
2019-05-18T12:20:09.001Z,59.83
2019-05-18T12:22:37.738Z,59.83
2019-05-18T12:25:07.374Z,55.40
2019-05-18T12:27:36.069Z,57.93
2019-05-18T12:30:06.667Z,58.43
2019-05-18T12:32:35.256Z,62.17
2019-05-18T12:35:05.514Z,57.20
2019-05-18T12:37:34.071Z,57.10
2019-05-18T12:40:02.757Z,61.23
2019-05-18T12:42:31.622Z,59.50
2019-05-18T12:45:00.288Z,63.90
2019-05-18T12:47:28.939Z,57.00
2019-05-18T12:49:57.669Z,57.63
2019-05-18T12:52:26.602Z,59.73
2019-05-18T12:54:55.325Z,63.67
2019-05-18T12:57:24.096Z,62.30
2019-05-18T12:59:53.059Z,61.27
2019-05-18T13:02:21.653Z,62.10
2019-05-18T13:04:50.220Z,60.83
2019-05-18T13:07:18.833Z,61.60
2019-05-18T13:09:47.481Z,59.23
2019-05-18T13:12:16.150Z,63.23
2019-05-18T13:14:45.089Z,57.80
2019-05-18T13:17:13.858Z,57.20
2019-05-18T13:19:42.450Z,58.43
2019-05-18T13:22:11.124Z,59.87
2019-05-18T13:24:45.252Z,57.17
2019-05-18T13:27:09.991Z,58.63
2019-05-18T13:29:38.556Z,58.07
2019-05-18T13:32:07.135Z,58.00
2019-05-18T13:34:35.877Z,57.20
2019-05-18T13:37:04.491Z,50.73
2019-05-18T13:39:33.139Z,50.30
2019-05-18T13:42:01.737Z,51.67
2019-05-18T13:44:30.370Z,49.47
2019-05-18T13:46:58.951Z,49.47
2019-05-18T13:49:29.467Z,49.70
2019-05-18T13:51:57.825Z,49.77
2019-05-18T13:54:26.406Z,44.30
2019-05-18T13:56:55.000Z,43.47
2019-05-18T13:59:23.965Z,44.97
2019-05-18T14:01:55.067Z,43.23
2019-05-18T14:04:22.775Z,44.77
2019-05-18T14:06:51.412Z,42.33
2019-05-18T14:09:20.086Z,42.83
2019-05-18T14:11:48.715Z,41.57
2019-05-18T14:14:17.387Z,44.77
2019-05-18T14:16:46.442Z,38.73
2019-05-18T14:19:15.126Z,39.30
2019-05-18T14:21:43.720Z,35.87
2019-05-18T14:24:12.443Z,40.23
2019-05-18T14:26:44.055Z,36.40
2019-05-18T14:29:12.723Z,34.97
2019-05-18T14:31:41.392Z,37.43
2019-05-18T14:34:10.017Z,34.17
2019-05-18T14:36:38.606Z,34.80
2019-05-18T14:39:07.304Z,35.50
2019-05-18T14:41:36.063Z,34.47
2019-05-18T14:44:05.079Z,36.70
2019-05-18T14:46:33.685Z,36.23
2019-05-18T14:49:02.328Z,36.80
2019-05-18T14:51:30.939Z,38.27
2019-05-18T14:53:59.536Z,38.27
2019-05-18T14:56:28.152Z,34.30
2019-05-18T14:58:56.782Z,35.00
2019-05-18T15:01:25.494Z,36.93
2019-05-18T15:03:54.241Z,37.97
2019-05-18T15:06:22.873Z,37.10
2019-05-18T15:08:51.545Z,36.50
2019-05-18T15:11:20.201Z,37.57
2019-05-18T15:13:49.083Z,34.27
2019-05-18T15:16:17.741Z,33.27
2019-05-18T15:18:46.336Z,38.27
2019-05-18T15:21:14.976Z,39.20
2019-05-18T15:23:43.627Z,41.67
2019-05-18T15:26:12.295Z,42.13
2019-05-18T15:28:40.960Z,39.10
2019-05-18T15:31:09.937Z,40.30
2019-05-18T15:33:38.543Z,39.43
2019-05-18T15:36:07.171Z,38.07
2019-05-18T15:38:35.848Z,40.37
2019-05-18T15:41:04.563Z,39.60
2019-05-18T15:43:33.289Z,37.97
2019-05-18T15:46:01.876Z,35.63
2019-05-18T15:48:30.626Z,35.77
2019-05-18T15:50:59.474Z,34.73
2019-05-18T15:53:28.082Z,35.87
2019-05-18T15:56:05.232Z,35.30
2019-05-18T15:58:27.029Z,34.60
2019-05-18T16:00:55.594Z,40.30
2019-05-18T16:03:24.186Z,34.73
2019-05-18T16:05:52.755Z,35.13
2019-05-18T16:08:21.328Z,34.60
2019-05-18T16:10:49.934Z,32.30
2019-05-18T16:13:18.518Z,35.77
2019-05-18T16:15:47.099Z,34.97
2019-05-18T16:18:15.852Z,33.20
2019-05-18T16:20:44.496Z,33.47
2019-05-18T16:23:13.134Z,35.57
2019-05-18T16:25:41.739Z,34.60
2019-05-18T16:28:10.850Z,33.90
2019-05-18T16:30:40.959Z,30.83
2019-05-18T16:33:09.774Z,43.83
2019-05-18T16:35:42.175Z,35.83
2019-05-18T16:38:11.331Z,72.90
2019-05-18T16:40:40.112Z,80.17
2019-05-18T16:43:14.619Z,96.50
2019-05-18T16:45:43.285Z,55.13
2019-05-18T16:48:11.997Z,41.67
2019-05-18T16:50:40.706Z,37.77
2019-05-18T16:53:09.597Z,39.53
2019-05-18T16:55:38.390Z,40.93
2019-05-18T16:58:10.171Z,43.50
2019-05-18T17:00:45.938Z,44.80
2019-05-18T17:03:16.313Z,40.37
2019-05-18T17:05:48.005Z,39.33
2019-05-18T17:08:17.022Z,42.20
2019-05-18T17:10:48.331Z,40.93
2019-05-18T17:13:17.435Z,38.60
2019-05-18T17:15:46.563Z,42.33
2019-05-18T17:18:39.974Z,42.50
2019-05-18T17:20:53.968Z,49.30
2019-05-18T17:23:22.989Z,47.83
2019-05-18T17:25:51.999Z,48.17
2019-05-18T17:28:22.370Z,52.70
2019-05-18T17:30:52.940Z,54.40
2019-05-18T17:33:23.559Z,56.13
2019-05-18T17:36:00.207Z,56.47
2019-05-18T17:38:23.013Z,63.33
2019-05-18T17:40:55.944Z,62.60
2019-05-18T17:43:24.890Z,58.10
2019-05-18T17:45:53.710Z,64.93
2019-05-18T17:48:25.429Z,67.30
2019-05-18T17:50:54.347Z,76.20
2019-05-18T17:53:22.943Z,73.30
2019-05-18T17:55:53.555Z,67.30
2019-05-18T17:58:22.489Z,66.93
2019-05-18T18:00:52.967Z,66.43
2019-05-18T18:03:21.845Z,69.60
2019-05-18T18:05:53.324Z,68.17
2019-05-18T18:08:22.231Z,73.67
2019-05-18T18:10:53.043Z,62.57
2019-05-18T18:13:21.647Z,69.17
2019-05-18T18:15:50.471Z,68.13
2019-05-18T18:18:19.330Z,69.77
2019-05-18T18:20:48.157Z,71.10
2019-05-18T18:23:18.849Z,68.37
2019-05-18T18:25:49.017Z,62.27
2019-05-18T18:28:18.794Z,63.40
2019-05-18T18:30:49.884Z,69.63
2019-05-18T18:33:20.590Z,64.70
2019-05-18T18:35:49.272Z,64.67
2019-05-18T18:38:19.521Z,68.13
2019-05-18T18:40:48.532Z,66.03
2019-05-18T18:43:20.104Z,70.97
2019-05-18T18:45:50.349Z,64.50
2019-05-18T18:48:22.117Z,66.73
2019-05-18T18:50:51.151Z,68.33
2019-05-18T18:53:20.110Z,70.70
2019-05-18T18:55:49.244Z,71.07
2019-05-18T18:58:19.612Z,70.47
2019-05-18T19:00:50.445Z,76.13
2019-05-18T19:03:19.167Z,73.53
2019-05-18T19:05:50.928Z,71.30
2019-05-18T19:08:20.405Z,76.33
2019-05-18T19:10:49.231Z,78.63
2019-05-18T19:13:18.058Z,79.47
2019-05-18T19:15:47.098Z,84.37
2019-05-18T19:18:16.605Z,86.30
2019-05-18T19:20:45.619Z,84.77
2019-05-18T19:23:14.475Z,83.90
2019-05-18T19:25:43.245Z,87.50
2019-05-18T19:28:11.874Z,85.73
2019-05-18T19:30:42.571Z,91.77
2019-05-18T19:33:20.305Z,81.97
2019-05-18T19:35:49.265Z,88.47
2019-05-18T19:38:18.178Z,90.77
2019-05-18T19:40:47.149Z,88.33
2019-05-18T19:43:15.993Z,99.03
2019-05-18T19:45:44.727Z,93.90
2019-05-18T19:48:13.413Z,84.07
2019-05-18T19:50:42.491Z,89.07
2019-05-18T19:53:11.208Z,95.30
2019-05-18T19:55:40.278Z,91.73
2019-05-18T19:58:09.493Z,90.27
2019-05-18T20:00:38.449Z,87.83
2019-05-18T20:03:07.317Z,88.90
2019-05-18T20:05:36.659Z,85.63
2019-05-18T20:08:05.334Z,93.77
2019-05-18T20:10:51.091Z,88.93
2019-05-18T20:13:09.377Z,91.73
2019-05-18T20:15:38.163Z,92.63
2019-05-18T20:18:06.956Z,89.03
2019-05-18T20:20:35.734Z,85.63
2019-05-18T20:23:08.057Z,90.57
2019-05-18T20:25:34.963Z,82.87
2019-05-18T20:28:03.544Z,98.40
2019-05-18T20:30:32.309Z,86.33
2019-05-18T20:33:01.026Z,83.07
2019-05-18T20:35:30.155Z,91.27
2019-05-18T20:37:59.000Z,89.27
2019-05-18T20:40:27.701Z,91.10
2019-05-18T20:42:56.571Z,94.17
2019-05-18T20:45:25.267Z,87.27
2019-05-18T20:47:54.451Z,89.17
2019-05-18T20:50:23.218Z,93.07
2019-05-18T20:52:51.875Z,90.63
2019-05-18T20:55:20.700Z,86.70
2019-05-18T20:57:49.434Z,88.13
2019-05-18T21:00:18.239Z,87.60
2019-05-18T21:02:47.312Z,86.20
2019-05-18T21:05:16.558Z,91.20
2019-05-18T21:07:45.270Z,92.00
2019-05-18T21:10:14.034Z,90.90
2019-05-18T21:12:42.690Z,89.77
2019-05-18T21:15:12.215Z,87.83
2019-05-18T21:17:40.814Z,87.20
2019-05-18T21:20:11.589Z,89.30
2019-05-18T21:22:40.230Z,87.47
2019-05-18T21:25:09.093Z,83.20
2019-05-18T21:27:37.937Z,84.70
2019-05-18T21:30:07.954Z,93.47
2019-05-18T21:32:36.665Z,84.60
2019-05-18T21:35:08.419Z,96.67
2019-05-18T21:37:37.266Z,89.93
2019-05-18T21:40:12.063Z,86.80
2019-05-18T21:42:38.451Z,83.77
2019-05-18T21:45:08.082Z,90.60
2019-05-18T21:47:36.773Z,92.07
2019-05-18T21:50:07.140Z,86.47
2019-05-18T21:52:36.354Z,81.70
2019-05-18T21:55:13.175Z,88.67
2019-05-18T21:57:42.332Z,89.37
2019-05-18T22:00:11.546Z,87.40
2019-05-18T22:02:43.387Z,91.07
2019-05-18T22:05:12.143Z,89.60
2019-05-18T22:07:40.969Z,89.37
2019-05-18T22:10:24.879Z,85.13
2019-05-18T22:12:42.290Z,89.73
2019-05-18T22:15:11.387Z,94.43
2019-05-18T22:17:58.046Z,90.57
2019-05-18T22:20:26.679Z,94.23
2019-05-18T22:22:55.399Z,92.33
2019-05-18T22:25:24.122Z,88.90
2019-05-18T22:27:53.389Z,89.60
2019-05-18T22:30:22.466Z,89.03
2019-05-18T22:32:51.278Z,93.33
2019-05-18T22:35:20.047Z,99.77
2019-05-18T22:37:49.035Z,93.90
2019-05-18T22:40:18.151Z,94.60
2019-05-18T22:42:47.007Z,99.23
2019-05-18T22:45:15.880Z,87.53
2019-05-18T22:47:44.572Z,107.20
2019-05-18T22:50:13.444Z,87.47
2019-05-18T22:52:42.400Z,97.50
2019-05-18T22:55:11.258Z,101.07
2019-05-18T22:57:40.389Z,105.73
2019-05-18T23:00:09.358Z,98.23
2019-05-18T23:02:38.299Z,97.77
2019-05-18T23:05:07.253Z,101.63
2019-05-18T23:07:35.959Z,96.00
2019-05-18T23:10:05.925Z,103.03
2019-05-18T23:12:34.543Z,105.47
2019-05-18T23:15:06.285Z,99.63
2019-05-18T23:17:35.212Z,98.87
2019-05-18T23:20:05.828Z,94.60
2019-05-18T23:22:34.717Z,108.50
2019-05-18T23:25:05.226Z,104.40
2019-05-18T23:27:34.037Z,108.90
2019-05-18T23:30:08.955Z,112.67
2019-05-18T23:32:37.890Z,111.43
2019-05-18T23:35:06.897Z,109.13
2019-05-18T23:37:35.691Z,105.60
2019-05-18T23:40:08.092Z,106.23
2019-05-18T23:42:39.965Z,112.27
2019-05-18T23:45:08.946Z,111.43
2019-05-18T23:47:38.505Z,112.57
2019-05-18T23:50:08.916Z,110.07
2019-05-18T23:52:38.154Z,114.40
2019-05-18T23:55:07.689Z,115.07
2019-05-18T23:57:39.131Z,115.93
